Time;durP1;ratioP1;P1;durP2;ratioP2;P2;SDS_P1;SDS_P2;PMS_P1;PMS_P2;Temp;Humidity;BMP_temperature;BMP_pressure;BME280_temperature;BME280_humidity;BME280_pressure;Samples;Min_cycle;Max_cycle;Signal;HPM_P1;HPM_P2
2022/03/24 00:00:27;;;;;;;52.15;36.75;;;;;;;8.22;58.58;102774.06;5034107;28;20457;-70
2022/03/24 00:02:52;;;;;;;52.95;37.28;;;;;;;8.21;59.16;102780.44;5034571;28;20033;-70
2022/03/24 00:05:18;;;;;;;55.63;36.22;;;;;;;8.13;59.22;102778.56;5035314;28;20036;-70
2022/03/24 00:07:43;;;;;;;54.67;38.15;;;;;;;8.14;58.73;102774.88;5035265;28;20042;-70
2022/03/24 00:10:10;;;;;;;52.47;37.92;;;;;;;8.07;59.41;102779.19;5035269;28;20040;-70
2022/03/24 00:12:35;;;;;;;56.20;36.50;;;;;;;8.05;59.05;102775.00;5035476;28;20029;-70
2022/03/24 00:15:04;;;;;;;66.85;38.22;;;;;;;7.99;59.29;102776.47;5035068;28;20358;-70
2022/03/24 00:17:30;;;;;;;57.72;38.70;;;;;;;7.92;59.74;102767.34;5034756;28;20033;-70
2022/03/24 00:19:56;;;;;;;55.42;38.05;;;;;;;8.04;58.38;102770.59;5035033;28;20037;-70
2022/03/24 00:22:21;;;;;;;57.20;38.70;;;;;;;7.92;57.86;102770.03;5035226;28;20033;-70
2022/03/24 00:24:47;;;;;;;60.70;40.25;;;;;;;7.93;58.99;102769.88;5034498;28;20057;-70
2022/03/24 00:27:12;;;;;;;60.30;37.67;;;;;;;7.90;59.11;102769.34;5035056;28;20072;-70
2022/03/24 00:29:37;;;;;;;62.90;38.55;;;;;;;7.91;58.64;102768.34;5034665;28;20044;-70
2022/03/24 00:32:03;;;;;;;56.83;39.22;;;;;;;7.93;59.00;102769.88;5034849;28;20041;-70
2022/03/24 00:34:28;;;;;;;56.70;38.28;;;;;;;7.92;58.86;102764.66;5034643;28;20060;-70
2022/03/24 00:36:54;;;;;;;59.40;38.50;;;;;;;7.89;58.95;102771.19;5034485;28;20499;-70
2022/03/24 00:39:19;;;;;;;58.10;38.40;;;;;;;7.85;58.78;102764.44;5017179;28;20065;-70
2022/03/24 00:41:45;;;;;;;60.25;38.75;;;;;;;7.82;59.54;102767.47;5034944;28;20033;-70
2022/03/24 00:44:10;;;;;;;55.17;38.00;;;;;;;7.83;59.88;102757.53;5034367;28;20037;-70
2022/03/24 00:46:35;;;;;;;54.38;38.00;;;;;;;7.79;59.14;102759.69;5034351;28;20033;-70
2022/03/24 00:49:01;;;;;;;54.67;37.33;;;;;;;7.72;59.55;102759.47;5034418;28;20049;-70
2022/03/24 00:51:26;;;;;;;52.35;37.60;;;;;;;7.66;60.05;102767.34;5016680;28;20393;-70
2022/03/24 00:53:51;;;;;;;61.83;38.85;;;;;;;7.47;59.85;102757.63;5033704;28;20461;-70
2022/03/24 00:56:20;;;;;;;56.83;36.28;;;;;;;7.31;60.50;102763.72;5033917;28;20029;-70
2022/03/24 00:58:45;;;;;;;54.47;36.58;;;;;;;7.25;60.56;102755.28;5033847;28;20075;-70
2022/03/24 01:01:12;;;;;;;57.83;37.97;;;;;;;7.32;59.99;102758.16;5031813;28;20037;-70
2022/03/24 01:03:41;;;;;;;58.33;37.45;;;;;;;7.31;60.64;102747.56;5033720;28;20044;-70
2022/03/24 01:06:07;;;;;;;51.63;37.22;;;;;;;7.36;61.09;102753.34;5034175;28;20030;-70
2022/03/24 01:08:34;;;;;;;54.35;36.10;;;;;;;7.38;60.82;102746.81;5034090;28;20087;-70
2022/03/24 01:11:01;;;;;;;53.00;36.72;;;;;;;7.32;61.08;102746.56;5034448;28;20076;-70
2022/03/24 01:13:28;;;;;;;52.28;36.92;;;;;;;7.21;60.49;102747.66;5034132;28;20531;-70
2022/03/24 01:15:53;;;;;;;56.47;37.92;;;;;;;7.10;60.13;102748.75;5033844;28;20029;-70
2022/03/24 01:18:19;;;;;;;55.92;36.28;;;;;;;7.07;60.67;102743.69;5033658;28;20112;-70
2022/03/24 01:20:46;;;;;;;53.30;35.80;;;;;;;7.01;61.00;102734.38;5032632;28;20030;-71
2022/03/24 01:23:12;;;;;;;52.20;36.95;;;;;;;7.02;61.31;102745.97;5033573;28;20037;-69
2022/03/24 01:25:38;;;;;;;55.88;36.50;;;;;;;7.02;60.67;102737.91;5033414;28;20035;-70
2022/03/24 01:28:03;;;;;;;49.97;35.83;;;;;;;7.08;60.68;102740.84;5033532;28;20030;-70
2022/03/24 01:30:28;;;;;;;50.88;36.25;;;;;;;7.06;60.38;102739.28;5033407;28;20043;-70
2022/03/24 01:32:54;;;;;;;55.63;36.78;;;;;;;7.03;60.84;102734.22;5033516;28;20037;-70
2022/03/24 01:35:19;;;;;;;55.80;36.42;;;;;;;6.89;60.62;102736.44;5033713;28;20032;-70
2022/03/24 01:37:44;;;;;;;55.90;36.60;;;;;;;6.83;61.53;102729.00;5033376;28;20033;-70
2022/03/24 01:40:12;;;;;;;59.05;36.08;;;;;;;6.82;61.46;102726.47;5033634;28;20030;-70
2022/03/24 01:42:39;;;;;;;59.13;36.53;;;;;;;6.79;61.25;102732.97;5033684;28;20025;-70
2022/03/24 01:45:06;;;;;;;51.50;36.15;;;;;;;6.85;61.18;102724.28;5033308;28;20076;-70
2022/03/24 01:47:34;;;;;;;53.63;37.45;;;;;;;6.84;61.06;102724.44;5033276;28;20036;-70
2022/03/24 01:49:59;;;;;;;67.40;36.30;;;;;;;6.88;61.32;102720.47;5033051;28;20052;-70
2022/03/24 01:52:26;;;;;;;59.95;37.70;;;;;;;6.84;61.51;102714.56;5033266;28;20120;-70
2022/03/24 01:54:54;;;;;;;55.85;35.25;;;;;;;6.82;61.89;102723.78;5033267;28;20038;-70
2022/03/24 01:57:21;;;;;;;53.13;36.33;;;;;;;6.77;61.49;102713.47;5033253;28;20029;-70
2022/03/24 01:59:48;;;;;;;54.63;36.80;;;;;;;6.81;60.94;102711.31;5033200;28;20064;-70
2022/03/24 02:02:14;;;;;;;54.33;37.10;;;;;;;6.81;61.47;102711.31;5031389;28;20037;-70
2022/03/24 02:04:40;;;;;;;56.72;36.50;;;;;;;6.81;61.39;102711.31;5032641;28;20033;-70
2022/03/24 02:07:06;;;;;;;52.50;36.47;;;;;;;6.70;61.26;102710.56;5033226;28;20580;-70
2022/03/24 02:09:32;;;;;;;59.97;36.50;;;;;;;6.65;61.52;102717.41;5032894;28;20034;-70
2022/03/24 02:11:57;;;;;;;54.25;36.85;;;;;;;6.53;61.63;102709.53;5032948;28;20037;-70
2022/03/24 02:14:23;;;;;;;55.90;37.13;;;;;;;6.60;62.28;102708.91;5032885;28;20040;-70
2022/03/24 02:16:49;;;;;;;53.72;36.22;;;;;;;6.60;62.01;102709.78;5032579;28;20037;-70
2022/03/24 02:19:16;;;;;;;56.10;37.92;;;;;;;6.56;62.22;102703.84;5031268;28;20492;-70
2022/03/24 02:21:43;;;;;;;56.83;37.33;;;;;;;6.49;62.60;102705.47;5015057;28;20036;-70
2022/03/24 02:24:10;;;;;;;51.33;36.40;;;;;;;6.46;62.50;102710.28;5032230;28;20036;-70
2022/03/24 02:26:36;;;;;;;51.03;36.08;;;;;;;6.44;62.36;102704.22;5031521;28;20037;-70
2022/03/24 02:29:07;;;;;;;59.58;36.88;;;;;;;6.47;62.78;102710.13;5032213;28;20037;-70
2022/03/24 02:31:38;;;;;;;55.78;36.80;;;;;;;6.47;62.15;102702.06;5031416;28;20033;-70
2022/03/24 02:36:48;;;;;;;55.85;36.92;;;;;;;6.33;62.59;102703.44;5032291;28;20049;-70
2022/03/24 02:39:14;;;;;;;53.92;36.72;;;;;;;6.33;62.50;102711.50;5032578;28;20397;-70
2022/03/24 02:41:51;;;;;;;52.88;36.20;;;;;;;6.31;62.63;102710.81;5032745;28;20029;-70
2022/03/24 02:44:22;;;;;;;56.42;36.75;;;;;;;6.27;62.84;102714.81;5032033;28;20036;-69
2022/03/24 02:46:48;;;;;;;56.40;35.90;;;;;;;6.18;63.07;102711.16;5031983;28;20480;-69
2022/03/24 02:49:14;;;;;;;54.63;35.45;;;;;;;6.15;63.09;102710.63;5032429;28;20120;-70
2022/03/24 02:51:40;;;;;;;54.65;35.90;;;;;;;6.15;63.25;102711.47;5032389;28;20033;-69
2022/03/24 02:54:05;;;;;;;50.88;35.10;;;;;;;6.17;63.29;102708.63;5031867;28;20091;-70
2022/03/24 02:56:31;;;;;;;55.55;34.63;;;;;;;6.20;63.22;102708.34;5031217;28;20122;-70
2022/03/24 02:58:57;;;;;;;56.35;35.50;;;;;;;6.14;63.22;102706.25;5031895;28;20577;-70
2022/03/24 03:01:25;;;;;;;48.03;34.90;;;;;;;6.11;63.67;102707.38;5029410;28;20452;-70
2022/03/24 03:03:52;;;;;;;58.78;35.67;;;;;;;6.04;63.18;102714.38;5031954;28;20095;-70
2022/03/24 03:06:18;;;;;;;49.35;34.83;;;;;;;6.06;62.98;102712.38;5032085;28;20035;-70
2022/03/24 03:08:44;;;;;;;48.53;35.00;;;;;;;6.01;63.92;102709.31;5032015;28;20100;-69
2022/03/24 03:11:09;;;;;;;55.20;35.33;;;;;;;6.03;63.33;102713.50;5032056;28;20551;-70
2022/03/24 03:13:35;;;;;;;51.22;34.05;;;;;;;6.01;63.32;102709.31;5031751;28;20109;-70
2022/03/24 03:16:00;;;;;;;53.83;34.55;;;;;;;5.95;63.75;102709.84;5033419;28;20037;-69
2022/03/24 03:18:25;;;;;;;51.67;34.22;;;;;;;5.93;63.78;102701.09;5036066;28;20036;-70
2022/03/24 03:20:51;;;;;;;53.85;34.28;;;;;;;5.89;64.17;102708.59;5035822;28;20067;-70
2022/03/24 03:23:16;;;;;;;58.03;35.60;;;;;;;5.84;63.39;102709.06;5036147;28;20075;-70
2022/03/24 03:25:41;;;;;;;54.15;34.42;;;;;;;5.87;64.10;102707.88;5037025;28;20061;-70
2022/03/24 03:28:07;;;;;;;53.28;34.53;;;;;;;5.80;64.79;102704.97;5035692;28;20488;-70
2022/03/24 03:30:32;;;;;;;52.42;35.25;;;;;;;5.80;64.61;102704.13;5035344;28;20041;-70
2022/03/24 03:32:57;;;;;;;57.70;33.75;;;;;;;5.70;64.10;102704.16;5035576;28;20384;-75
2022/03/24 03:35:22;;;;;;;52.47;34.50;;;;;;;5.77;64.20;102709.78;5018102;28;20030;-70
2022/03/24 03:37:48;;;;;;;51.88;34.38;;;;;;;5.79;64.49;102702.41;5018030;28;20047;-70
2022/03/24 03:40:13;;;;;;;49.15;34.13;;;;;;;5.69;63.98;102715.88;5035657;28;20056;-70
2022/03/24 03:42:38;;;;;;;59.67;35.45;;;;;;;5.66;64.45;102714.34;5034412;28;20029;-70
2022/03/24 03:45:04;;;;;;;53.63;34.38;;;;;;;5.65;64.64;102711.81;5035246;28;20140;-70
2022/03/24 03:47:29;;;;;;;72.90;35.72;;;;;;;5.62;64.49;102710.25;5017909;28;20099;-70
2022/03/24 03:49:56;;;;;;;55.10;34.40;;;;;;;5.58;64.66;102708.00;5034911;28;20053;-69
2022/03/24 03:52:21;;;;;;;50.17;34.85;;;;;;;5.60;64.43;102714.06;5035190;28;20477;-70
2022/03/24 03:54:47;;;;;;;52.40;34.78;;;;;;;5.62;64.71;102714.78;5034899;28;20079;-70
2022/03/24 03:57:12;;;;;;;56.83;34.97;;;;;;;5.52;64.74;102719.34;5035137;28;20075;-70
2022/03/24 03:59:39;;;;;;;51.30;35.10;;;;;;;5.53;64.66;102713.81;5035679;28;20037;-70
2022/03/24 04:02:04;;;;;;;51.25;33.35;;;;;;;5.50;65.00;102712.25;5032659;28;20041;-70
2022/03/24 04:04:30;;;;;;;52.38;35.97;;;;;;;5.52;64.73;102704.06;5035087;28;20381;-70
2022/03/24 04:06:55;;;;;;;50.75;33.55;;;;;;;5.48;64.67;102708.88;5035158;28;20045;-70
2022/03/24 04:09:20;;;;;;;51.30;34.63;;;;;;;5.47;64.62;102715.25;5035295;28;20037;-70
2022/03/24 04:11:46;;;;;;;50.90;34.85;;;;;;;5.45;64.90;102713.69;5035030;28;20072;-70
2022/03/24 04:14:12;;;;;;;52.83;35.85;;;;;;;5.43;65.67;102705.78;5035027;28;20061;-70
2022/03/24 04:16:37;;;;;;;55.25;34.90;;;;;;;5.44;64.78;102710.16;5034902;28;20436;-70
2022/03/24 04:19:07;;;;;;;51.58;34.83;;;;;;;5.42;65.60;102713.97;5034957;28;20033;-70
2022/03/24 04:21:33;;;;;;;54.88;35.55;;;;;;;5.39;65.29;102715.13;5034971;28;20041;-70
2022/03/24 04:23:58;;;;;;;53.25;36.47;;;;;;;5.36;65.42;102707.38;5034803;28;20037;-69
2022/03/24 04:26:23;;;;;;;57.92;36.00;;;;;;;5.28;65.45;102708.09;5050323;28;20468;-70
2022/03/24 04:28:49;;;;;;;54.63;34.75;;;;;;;5.24;65.74;102700.44;5033791;28;20044;-70
2022/03/24 04:31:14;;;;;;;52.20;35.67;;;;;;;5.26;65.78;102709.22;5034638;28;20080;-69
2022/03/24 04:33:40;;;;;;;54.03;35.50;;;;;;;5.23;66.21;102709.50;5034447;28;20462;-70
2022/03/24 04:36:08;;;;;;;57.05;34.83;;;;;;;5.21;65.68;102711.47;5034795;28;20056;-70
2022/03/24 04:38:34;;;;;;;59.13;36.30;;;;;;;5.15;65.76;102703.00;5034526;28;20033;-69
2022/03/24 04:41:00;;;;;;;51.22;35.33;;;;;;;5.17;66.12;102710.09;5034562;28;20032;-69
2022/03/24 04:43:26;;;;;;;55.90;36.65;;;;;;;5.20;66.16;102704.44;5034781;28;20487;-69
2022/03/24 04:45:51;;;;;;;62.88;36.20;;;;;;;5.25;66.40;102710.19;5033415;28;20029;-69
2022/03/24 04:48:16;;;;;;;52.20;35.72;;;;;;;5.20;65.76;102701.75;5034406;28;20053;-70
2022/03/24 04:50:42;;;;;;;55.22;35.70;;;;;;;5.15;66.01;102708.38;5033316;28;20440;-69
2022/03/24 04:53:07;;;;;;;60.38;37.03;;;;;;;5.14;66.05;102708.53;5034250;28;20026;-69
2022/03/24 04:55:33;;;;;;;53.80;37.40;;;;;;;5.11;65.79;102714.19;5033003;28;20111;-70
2022/03/24 04:57:58;;;;;;;56.55;37.35;;;;;;;5.12;66.25;102713.19;5033935;28;20057;-69
2022/03/24 05:00:23;;;;;;;55.10;35.88;;;;;;;5.17;66.01;102707.41;5033720;28;20143;-70
2022/03/24 05:02:49;;;;;;;50.42;36.05;;;;;;;5.19;65.77;102710.78;5032771;28;20465;-69
2022/03/24 05:05:15;;;;;;;57.97;36.80;;;;;;;5.11;66.10;102703.44;5033617;28;20025;-69
2022/03/24 05:07:41;;;;;;;52.47;34.63;;;;;;;5.08;65.85;102714.47;5034157;28;20045;-69
2022/03/24 05:10:07;;;;;;;60.00;37.05;;;;;;;5.06;65.71;102719.97;5032526;28;20489;-69
2022/03/24 05:12:32;;;;;;;50.33;35.03;;;;;;;5.02;65.97;102712.34;5033701;28;20072;-70
2022/03/24 05:14:58;;;;;;;52.08;34.50;;;;;;;4.99;66.40;102715.31;5033691;28;20073;-70
2022/03/24 05:17:24;;;;;;;52.13;35.00;;;;;;;5.01;66.14;102722.22;5033917;28;20038;-70
2022/03/24 05:19:50;;;;;;;54.53;34.70;;;;;;;5.02;65.87;102718.56;5016139;28;20453;-70
2022/03/24 05:22:16;;;;;;;56.75;35.50;;;;;;;4.94;66.38;102710.38;5033673;28;20377;-70
2022/03/24 05:24:42;;;;;;;58.03;35.22;;;;;;;4.91;65.73;102716.03;5033432;28;20029;-70
2022/03/24 05:27:08;;;;;;;51.45;33.40;;;;;;;4.91;66.67;102718.72;5025291;28;20037;-70
2022/03/24 05:29:34;;;;;;;55.53;35.40;;;;;;;4.92;66.23;102723.06;5033640;28;20037;-70
2022/03/24 05:32:00;;;;;;;55.08;35.00;;;;;;;4.91;65.50;102726.78;5032936;28;20036;-69
2022/03/24 05:34:25;;;;;;;112.53;37.28;;;;;;;4.89;66.40;102729.59;5033855;28;20030;-70
2022/03/24 05:36:51;;;;;;;103.28;37.45;;;;;;;4.85;66.79;102720.13;5032957;28;20509;-70
2022/03/24 05:39:17;;;;;;;119.22;38.17;;;;;;;4.84;66.32;102729.16;5032073;28;20022;-70
2022/03/24 05:41:42;;;;;;;92.53;37.08;;;;;;;4.83;66.34;102727.47;5016268;28;20169;-70
2022/03/24 05:44:07;;;;;;;95.25;35.47;;;;;;;4.77;66.68;102726.19;5032910;28;20080;-70
2022/03/24 05:46:35;;;;;;;104.07;36.35;;;;;;;4.74;66.73;102737.22;5033461;28;20029;-69
2022/03/24 05:49:04;;;;;;;113.75;36.50;;;;;;;4.74;67.27;102731.84;5032656;28;20149;-70
2022/03/24 05:51:29;;;;;;;84.22;35.97;;;;;;;4.68;67.07;102731.53;5015736;28;20145;-70
2022/03/24 05:53:55;;;;;;;85.85;35.10;;;;;;;4.71;67.55;102740.16;5033047;28;20036;-70
2022/03/24 05:56:20;;;;;;;72.40;35.00;;;;;;;4.67;66.99;102740.59;5032545;28;20028;-70
2022/03/24 05:58:46;;;;;;;62.55;36.78;;;;;;;4.66;67.46;102739.72;5033102;28;20036;-69
2022/03/24 06:01:13;;;;;;;60.33;37.15;;;;;;;4.65;67.30;102734.50;5030241;28;20463;-70
2022/03/24 06:03:40;;;;;;;53.65;35.90;;;;;;;4.63;67.36;102740.00;5015978;28;20132;-69
2022/03/24 06:06:06;;;;;;;66.55;37.83;;;;;;;4.66;66.68;102737.03;5032458;28;20030;-69
2022/03/24 06:08:34;;;;;;;61.80;36.78;;;;;;;4.69;67.47;102738.59;5033124;28;20044;-70
2022/03/24 06:11:01;;;;;;;67.68;38.38;;;;;;;4.68;67.23;102748.50;5033092;28;20427;-69
2022/03/24 06:13:27;;;;;;;57.95;36.42;;;;;;;4.69;67.09;102746.66;5032929;28;20064;-69
2022/03/24 06:15:54;;;;;;;75.13;38.50;;;;;;;4.68;67.06;102743.13;5033128;28;20037;-69
2022/03/24 06:18:20;;;;;;;65.25;37.97;;;;;;;4.71;67.33;102753.59;5032621;28;20113;-69
2022/03/24 06:20:45;;;;;;;68.18;38.17;;;;;;;4.74;67.37;102745.25;5015410;28;20034;-69
2022/03/24 06:23:10;;;;;;;62.20;37.78;;;;;;;4.77;67.49;102753.03;4998859;28;20045;-69
2022/03/24 06:25:37;;;;;;;57.85;37.22;;;;;;;4.73;67.69;102748.06;5032754;28;20031;-70
2022/03/24 06:28:04;;;;;;;69.07;40.20;;;;;;;4.79;67.20;102744.84;5014764;28;20135;-70
2022/03/24 06:30:29;;;;;;;72.13;39.17;;;;;;;4.78;67.63;102743.97;5032712;28;20416;-69
2022/03/24 06:32:56;;;;;;;63.88;38.83;;;;;;;4.88;67.55;102751.19;5032176;28;20049;-69
2022/03/24 06:35:21;;;;;;;63.30;38.63;;;;;;;4.91;67.46;102754.44;5032159;28;20034;-69
2022/03/24 06:37:48;;;;;;;61.70;39.05;;;;;;;5.02;67.34;102750.75;5032267;28;20030;-69
2022/03/24 06:40:14;;;;;;;64.28;40.22;;;;;;;5.05;67.41;102745.09;5032456;28;20095;-69
2022/03/24 06:42:39;;;;;;;57.20;38.28;;;;;;;5.08;68.11;102747.50;5032586;28;20472;-70
2022/03/24 06:45:05;;;;;;;66.85;38.50;;;;;;;5.14;67.76;102749.63;5031963;28;20021;-70
2022/03/24 06:47:31;;;;;;;63.72;38.78;;;;;;;5.15;67.37;102742.44;5032568;28;20056;-69
2022/03/24 06:49:56;;;;;;;66.15;39.40;;;;;;;5.28;67.77;102756.41;5032570;28;20511;-69
2022/03/24 06:52:22;;;;;;;68.93;40.67;;;;;;;5.39;67.12;102758.09;5031732;28;20048;-69
2022/03/24 06:54:47;;;;;;;61.28;39.55;;;;;;;5.43;66.75;102754.09;5031717;28;20057;-69
2022/03/24 06:57:14;;;;;;;66.53;39.33;;;;;;;5.53;66.84;102754.09;5031141;28;20044;-70
2022/03/24 06:59:40;;;;;;;71.78;41.13;;;;;;;5.59;66.88;102752.69;5032077;28;20116;-70
2022/03/24 07:02:06;;;;;;;65.97;40.88;;;;;;;5.70;66.49;102757.03;5029721;28;20048;-69
2022/03/24 07:04:32;;;;;;;69.40;40.13;;;;;;;5.79;66.10;102757.00;5031843;28;20477;-69
2022/03/24 07:06:57;;;;;;;66.03;40.90;;;;;;;5.88;66.29;102759.81;5032188;28;20055;-70
2022/03/24 07:09:22;;;;;;;67.10;41.50;;;;;;;5.95;66.81;102758.19;5031720;28;20029;-70
2022/03/24 07:11:48;;;;;;;75.25;41.08;;;;;;;6.04;66.87;102760.06;5032504;28;20033;-69
2022/03/24 07:14:13;;;;;;;69.10;40.70;;;;;;;6.14;66.47;102755.47;5030821;28;20124;-69
2022/03/24 07:16:38;;;;;;;65.28;41.67;;;;;;;6.27;66.00;102757.00;5014276;28;20087;-69
2022/03/24 07:19:06;;;;;;;65.93;42.17;;;;;;;6.35;66.02;102762.44;5032001;28;20510;-69
2022/03/24 07:21:31;;;;;;;72.88;41.15;;;;;;;6.44;65.45;102764.22;5032061;28;20033;-69
2022/03/24 07:23:56;;;;;;;69.25;41.42;;;;;;;6.54;66.22;102764.19;5031900;28;20041;-69
2022/03/24 07:26:22;;;;;;;68.68;41.15;;;;;;;6.61;64.70;102765.25;5031821;28;20112;-69
2022/03/24 07:28:48;;;;;;;71.93;42.42;;;;;;;6.74;64.86;102775.66;5014548;28;20037;-69
2022/03/24 07:31:16;;;;;;;67.68;40.50;;;;;;;6.81;64.21;102771.38;5031473;28;20033;-69
2022/03/24 07:33:42;;;;;;;77.68;41.47;;;;;;;6.95;64.24;102774.53;5032207;28;20431;-69
2022/03/24 07:36:08;;;;;;;76.03;41.53;;;;;;;7.06;64.54;102771.59;5031048;28;20037;-69
2022/03/24 07:38:34;;;;;;;79.55;41.88;;;;;;;7.16;64.40;102771.53;5031721;28;20120;-69
2022/03/24 07:40:59;;;;;;;67.78;41.65;;;;;;;7.28;63.43;102767.59;5031598;28;20168;-69
2022/03/24 07:43:25;;;;;;;63.85;40.67;;;;;;;7.38;63.13;102764.78;5031539;28;20171;-69
2022/03/24 07:45:52;;;;;;;59.67;39.28;;;;;;;7.47;61.65;102768.41;5031717;28;20040;-70
2022/03/24 07:48:18;;;;;;;55.42;38.22;;;;;;;7.54;62.21;102767.59;5031146;28;20053;-70
2022/03/24 07:50:48;;;;;;;55.47;36.45;;;;;;;7.67;60.25;102774.41;5030472;28;20496;-70
2022/03/24 07:53:14;;;;;;;56.22;36.40;;;;;;;7.73;58.80;102763.88;5030106;28;20025;-70
2022/03/24 07:55:41;;;;;;;55.78;36.15;;;;;;;7.81;58.95;102768.47;5031511;28;20036;-70
2022/03/24 07:58:08;;;;;;;52.92;35.28;;;;;;;7.90;59.86;102762.09;5031217;28;20464;-70
2022/03/24 08:00:34;;;;;;;57.72;35.92;;;;;;;8.02;59.12;102775.28;5029595;28;20057;-70
2022/03/24 08:02:59;;;;;;;53.97;34.88;;;;;;;8.12;58.63;102773.31;5032948;28;20030;-70
2022/03/24 08:05:26;;;;;;;56.40;36.47;;;;;;;8.20;58.24;102767.13;5035316;28;20042;-70
2022/03/24 08:07:53;;;;;;;54.63;36.20;;;;;;;8.35;57.74;102773.63;5035321;28;20033;-70
2022/03/24 08:10:19;;;;;;;54.13;35.65;;;;;;;8.43;57.98;102778.19;5034602;28;20113;-71
2022/03/24 08:12:44;;;;;;;51.85;35.53;;;;;;;8.50;57.65;102773.88;5035048;28;20430;-70
2022/03/24 08:15:10;;;;;;;52.45;35.72;;;;;;;8.61;56.69;102780.81;5034928;28;20029;-71
2022/03/24 08:17:35;;;;;;;56.75;35.78;;;;;;;8.70;56.47;102779.81;5034444;28;20033;-71
2022/03/24 08:20:00;;;;;;;59.10;35.75;;;;;;;8.75;55.81;102777.44;5034544;28;20045;-71
2022/03/24 08:22:26;;;;;;;57.13;35.40;;;;;;;8.85;55.74;102780.03;5000413;28;20035;-73
2022/03/24 08:24:51;;;;;;;52.08;35.50;;;;;;;8.96;54.96;102782.38;5017453;28;20034;-73
2022/03/24 08:27:16;;;;;;;53.75;35.50;;;;;;;9.03;54.99;102772.63;5034639;28;20044;-72
2022/03/24 08:29:41;;;;;;;53.38;35.28;;;;;;;9.17;53.66;102781.06;5034836;28;20607;-72
2022/03/24 08:32:07;;;;;;;56.70;36.65;;;;;;;9.29;53.84;102779.72;5034865;28;20112;-74
2022/03/24 08:34:33;;;;;;;52.03;34.65;;;;;;;9.39;53.80;102788.50;5035611;28;20030;-74
2022/03/24 08:36:58;;;;;;;55.58;34.72;;;;;;;9.49;53.29;102787.47;5033671;28;20152;-71
2022/03/24 08:39:23;;;;;;;52.33;32.42;;;;;;;9.63;48.53;102785.94;5034461;28;20026;-74
2022/03/24 08:41:49;;;;;;;48.38;32.33;;;;;;;9.69;50.51;102790.66;5034648;28;20139;-72
2022/03/24 08:44:14;;;;;;;46.53;30.70;;;;;;;9.79;47.93;102785.06;5034648;28;20060;-73
2022/03/24 08:46:39;;;;;;;45.92;30.40;;;;;;;9.94;47.52;102783.34;5017021;28;20025;-72
2022/03/24 08:49:05;;;;;;;45.38;31.13;;;;;;;10.03;46.75;102782.28;5034473;28;20124;-72
2022/03/24 08:51:30;;;;;;;45.90;31.05;;;;;;;10.18;46.75;102789.69;5034573;28;20052;-72
2022/03/24 08:53:56;;;;;;;46.72;31.92;;;;;;;10.30;46.69;102782.88;5034727;28;20031;-72
2022/03/24 08:56:22;;;;;;;47.45;30.98;;;;;;;10.34;47.49;102788.81;5034113;28;20037;-72
2022/03/24 08:58:47;;;;;;;49.45;32.60;;;;;;;10.43;48.36;102793.16;5034431;28;20033;-72
2022/03/24 09:01:13;;;;;;;44.30;31.52;;;;;;;10.51;46.41;102789.56;5014144;28;20036;-71
2022/03/24 09:03:38;;;;;;;51.08;32.63;;;;;;;10.60;47.30;102785.81;5034742;28;20029;-72
2022/03/24 09:06:04;;;;;;;49.58;31.77;;;;;;;10.76;47.83;102793.00;5034276;28;20033;-70
2022/03/24 09:08:29;;;;;;;49.65;30.25;;;;;;;10.87;46.23;102792.59;5033477;28;20075;-70
2022/03/24 09:10:54;;;;;;;39.92;28.80;;;;;;;10.95;45.44;102799.81;5033956;28;20091;-70
2022/03/24 09:13:19;;;;;;;44.00;29.85;;;;;;;11.08;45.94;102799.22;5033959;28;20041;-70
2022/03/24 09:15:45;;;;;;;40.50;28.13;;;;;;;11.27;43.45;102795.19;5016490;28;20056;-71
2022/03/24 09:18:10;;;;;;;39.67;29.23;;;;;;;11.37;43.69;102797.63;5033688;28;20052;-71
2022/03/24 09:20:36;;;;;;;40.75;29.13;;;;;;;11.45;43.80;102792.97;5034159;28;20586;-70
2022/03/24 09:23:01;;;;;;;43.58;28.38;;;;;;;11.50;44.05;102793.28;5033590;28;20080;-71
2022/03/24 09:25:27;;;;;;;36.92;26.20;;;;;;;11.63;43.21;102797.25;5033737;28;20540;-71
2022/03/24 09:27:52;;;;;;;38.22;26.45;;;;;;;11.71;42.78;102797.16;5033742;28;20428;-71
2022/03/24 09:30:18;;;;;;;37.15;26.40;;;;;;;11.93;40.51;102800.88;5033724;28;20047;-71
2022/03/24 09:32:45;;;;;;;35.95;25.88;;;;;;;12.10;40.32;102798.81;5033899;28;20112;-71
2022/03/24 09:35:11;;;;;;;36.30;24.42;;;;;;;12.25;40.05;102800.69;5033726;28;20033;-71
2022/03/24 09:37:36;;;;;;;37.45;26.70;;;;;;;12.31;40.42;102802.63;5033646;28;20386;-71
2022/03/24 09:40:06;;;;;;;36.33;25.27;;;;;;;12.40;40.42;102801.50;5033267;28;20028;-71
2022/03/24 09:42:32;;;;;;;29.65;21.80;;;;;;;12.48;37.95;102800.56;5021796;28;20034;-72
2022/03/24 09:45:03;;;;;;;29.75;23.13;;;;;;;12.61;37.33;102803.44;5031459;28;20041;-71
2022/03/24 09:47:29;;;;;;;34.60;23.63;;;;;;;12.82;38.01;102799.91;5053038;28;20048;-72
2022/03/24 09:49:54;;;;;;;29.13;22.08;;;;;;;12.94;35.00;102797.53;5052974;28;20048;-71
2022/03/24 09:52:21;;;;;;;30.17;21.70;;;;;;;13.10;35.54;102799.13;5038170;28;20119;-72
2022/03/24 09:54:47;;;;;;;35.88;22.58;;;;;;;13.23;35.48;102795.72;5033160;28;20025;-71
2022/03/24 09:57:13;;;;;;;38.72;27.02;;;;;;;13.25;35.48;102799.91;5031889;28;20376;-71
2022/03/24 09:59:40;;;;;;;39.03;26.88;;;;;;;13.39;34.88;102797.34;5032865;28;20033;-72
2022/03/24 10:02:07;;;;;;;40.97;26.23;;;;;;;13.40;35.33;102799.03;5035672;28;20087;-72
2022/03/24 10:04:52;;;;;;;42.17;25.77;;;;;;;13.42;36.85;102803.25;5032874;28;20086;-73
2022/03/24 10:07:19;;;;;;;34.53;22.08;;;;;;;13.47;34.80;102794.50;5033109;28;20124;-71
2022/03/24 10:09:48;;;;;;;30.83;21.73;;;;;;;13.60;34.08;102799.19;5032316;28;20038;-72
2022/03/24 10:12:22;;;;;;;30.63;21.83;;;;;;;13.63;34.20;102798.78;5032679;28;20037;-71
2022/03/24 10:15:05;;;;;;;28.67;21.65;;;;;;;13.72;34.17;102794.88;5015565;28;20128;-72
2022/03/24 10:17:32;;;;;;;34.03;21.75;;;;;;;13.76;33.37;102796.16;5047475;28;20511;-71
2022/03/24 10:19:59;;;;;;;30.65;22.48;;;;;;;13.86;34.23;102787.66;5032869;28;20033;-71
2022/03/24 10:22:25;;;;;;;27.02;21.02;;;;;;;13.87;32.69;102783.06;5031562;28;20746;-71
2022/03/24 10:24:51;;;;;;;25.00;20.23;;;;;;;13.98;32.64;102783.34;5037318;28;20116;-71
2022/03/24 10:27:24;;;;;;;23.52;19.23;;;;;;;14.04;33.32;102778.13;5052003;28;20121;-71
2022/03/24 10:29:56;;;;;;;27.45;20.90;;;;;;;14.13;31.95;102779.63;5038090;28;20036;-71
2022/03/24 10:32:27;;;;;;;24.55;18.58;;;;;;;14.20;31.67;102783.22;5014592;28;20122;-70
2022/03/24 10:35:07;;;;;;;32.28;19.17;;;;;;;14.29;31.26;102784.75;5031281;28;20036;-71
2022/03/24 10:37:33;;;;;;;26.50;18.73;;;;;;;14.37;30.96;102775.56;5014315;28;20397;-71
2022/03/24 10:40:03;;;;;;;27.10;20.30;;;;;;;14.39;31.54;102783.53;5027336;28;20033;-73
2022/03/24 10:42:31;;;;;;;28.83;20.40;;;;;;;14.41;31.08;102778.72;5052120;28;20127;-74
2022/03/24 10:45:04;;;;;;;26.42;19.08;;;;;;;14.49;32.68;102783.97;5032380;28;20024;-72
2022/03/24 10:47:40;;;;;;;27.20;19.60;;;;;;;14.50;32.64;102781.06;5031720;28;20025;-72
2022/03/24 10:50:39;;;;;;;29.55;20.88;;;;;;;14.57;32.96;102780.25;5032193;28;20045;-72
2022/03/24 10:53:10;;;;;;;28.13;19.88;;;;;;;14.60;32.13;102772.50;5032535;28;20029;-72
2022/03/24 10:55:45;;;;;;;26.48;18.80;;;;;;;14.70;31.37;102780.31;5031993;28;20037;-72
2022/03/24 10:58:17;;;;;;;27.98;18.45;;;;;;;14.78;30.78;102777.41;5032441;28;20038;-73
2022/03/24 11:00:42;;;;;;;29.52;19.13;;;;;;;14.93;30.32;102779.09;5028934;28;20025;-75
2022/03/24 11:03:08;;;;;;;24.52;20.05;;;;;;;14.99;30.88;102783.72;5032132;28;20029;-76
2022/03/24 11:05:34;;;;;;;28.65;19.35;;;;;;;14.99;30.59;102778.28;5032212;28;20030;-75
2022/03/24 11:07:59;;;;;;;26.48;19.88;;;;;;;14.98;29.76;102777.44;5032257;28;20484;-73
2022/03/24 11:10:25;;;;;;;27.73;17.90;;;;;;;15.05;30.50;102783.75;5030814;28;20025;-73
2022/03/24 11:12:54;;;;;;;26.88;16.50;;;;;;;15.04;30.22;102771.16;5018805;28;20059;-73